createdAt,value
2023-06-13T00:00:13.860Z,27.84
2023-06-13T00:02:41.007Z,28.37
2023-06-13T00:05:08.333Z,28.03
2023-06-13T00:07:39.202Z,28.00
2023-06-13T00:10:09.182Z,27.96
2023-06-13T00:12:40.094Z,28.15
2023-06-13T00:15:07.367Z,28.16
2023-06-13T00:17:34.304Z,28.23
2023-06-13T00:20:01.014Z,28.25
2023-06-13T00:22:29.421Z,28.39
2023-06-13T00:24:56.318Z,28.29
2023-06-13T00:27:23.429Z,28.73
2023-06-13T00:29:50.269Z,28.52
2023-06-13T00:32:18.725Z,28.71
2023-06-13T00:34:45.351Z,28.86
2023-06-13T00:37:14.365Z,28.83
2023-06-13T00:39:43.156Z,28.47
2023-06-13T00:42:09.870Z,28.60
2023-06-13T00:44:37.840Z,28.85
2023-06-13T00:47:05.682Z,29.04
2023-06-13T00:49:32.948Z,28.89
2023-06-13T00:52:07.321Z,28.88
2023-06-13T00:54:35.625Z,28.97
2023-06-13T00:57:03.024Z,29.08
2023-06-13T00:59:30.190Z,29.32
2023-06-13T01:01:57.518Z,29.14
2023-06-13T01:04:24.236Z,29.19
2023-06-13T01:06:50.985Z,29.52
2023-06-13T01:09:18.917Z,29.58
2023-06-13T01:11:48.548Z,29.62
2023-06-13T01:14:35.729Z,29.25
2023-06-13T01:17:05.580Z,29.44
2023-06-13T01:19:41.598Z,29.70
2023-06-13T01:22:11.585Z,29.48
2023-06-13T01:24:39.540Z,29.23
2023-06-13T01:27:07.455Z,29.71
2023-06-13T01:29:36.009Z,29.88
2023-06-13T01:32:04.346Z,29.54
2023-06-13T01:34:31.466Z,29.60
2023-06-13T01:36:58.547Z,29.43
2023-06-13T01:39:25.290Z,29.53
2023-06-13T01:41:52.512Z,29.93
2023-06-13T01:44:23.815Z,29.66
2023-06-13T01:47:08.790Z,30.04
2023-06-13T01:49:35.504Z,29.90
2023-06-13T01:52:04.504Z,29.60
2023-06-13T01:54:36.737Z,29.48
2023-06-13T01:57:10.628Z,29.50
2023-06-13T01:59:39.899Z,30.03
2023-06-13T02:02:10.054Z,29.77
2023-06-13T02:04:40.173Z,29.46
2023-06-13T02:07:08.427Z,29.92
2023-06-13T02:09:44.080Z,29.88
2023-06-13T02:12:11.569Z,30.09
2023-06-13T02:14:38.208Z,29.68
2023-06-13T02:17:05.191Z,29.89
2023-06-13T02:22:37.498Z,30.24
2023-06-13T02:25:05.784Z,29.67
2023-06-13T02:27:33.600Z,30.22
2023-06-13T02:30:16.693Z,30.23
2023-06-13T02:32:43.567Z,30.05
2023-06-13T02:35:12.113Z,30.23
2023-06-13T02:37:41.368Z,30.67
2023-06-13T02:40:10.644Z,30.85
2023-06-13T02:42:37.848Z,30.99
2023-06-13T02:45:04.734Z,31.21
2023-06-13T02:47:35.671Z,30.88
2023-06-13T02:50:04.691Z,31.70
2023-06-13T02:52:40.097Z,31.80
2023-06-13T02:55:08.872Z,31.55
2023-06-13T02:57:38.841Z,31.93
2023-06-13T03:00:08.356Z,32.04
2023-06-13T03:02:38.133Z,32.43
2023-06-13T03:05:10.859Z,32.45
2023-06-13T03:07:46.517Z,31.97
2023-06-13T03:10:20.536Z,32.46
2023-06-13T03:12:54.015Z,32.00
2023-06-13T03:15:26.235Z,32.27
2023-06-13T03:17:53.205Z,32.61
2023-06-13T03:22:52.468Z,32.66
2023-06-13T03:25:19.692Z,32.75
2023-06-13T03:27:49.762Z,33.08
2023-06-13T03:30:20.345Z,32.73
2023-06-13T03:32:47.102Z,32.77
2023-06-13T03:35:13.737Z,32.75
2023-06-13T03:37:40.834Z,32.79
2023-06-13T03:40:07.857Z,32.96
2023-06-13T03:42:34.716Z,33.08
2023-06-13T03:45:01.608Z,32.47
2023-06-13T03:47:28.397Z,32.89
2023-06-13T03:49:55.290Z,33.03
2023-06-13T03:52:23.515Z,32.73
2023-06-13T03:54:52.765Z,32.87
2023-06-13T03:57:20.578Z,32.29
2023-06-13T03:59:47.241Z,31.92
2023-06-13T04:02:17.107Z,30.91
2023-06-13T04:04:46.758Z,30.20
2023-06-13T04:07:16.985Z,29.65
2023-06-13T04:09:43.582Z,28.99
2023-06-13T04:12:13.125Z,29.27
2023-06-13T04:14:39.822Z,29.87
2023-06-13T04:17:07.865Z,31.14
2023-06-13T04:19:34.611Z,31.09
2023-06-13T04:22:02.333Z,31.62
2023-06-13T04:24:29.652Z,31.36
2023-06-13T04:26:56.509Z,31.99
2023-06-13T04:29:27.273Z,32.13
2023-06-13T04:31:54.434Z,31.68
2023-06-13T04:34:21.627Z,32.09
2023-06-13T04:36:50.713Z,32.15
2023-06-13T04:39:18.553Z,32.54
2023-06-13T04:41:45.242Z,32.41
2023-06-13T04:44:14.395Z,31.94
2023-06-13T04:46:42.448Z,32.14
2023-06-13T04:49:09.667Z,32.21
2023-06-13T04:51:36.324Z,32.61
2023-06-13T04:54:02.932Z,32.71
2023-06-13T04:56:29.756Z,32.36
2023-06-13T04:58:57.320Z,32.22
2023-06-13T05:01:28.226Z,32.41
2023-06-13T05:03:58.472Z,32.65
2023-06-13T05:06:28.273Z,32.26
2023-06-13T05:08:55.076Z,32.56
2023-06-13T05:11:21.804Z,32.43
2023-06-13T05:13:48.437Z,32.80
2023-06-13T05:16:16.055Z,32.52
2023-06-13T05:18:42.896Z,32.44
2023-06-13T05:21:09.600Z,33.00
2023-06-13T05:23:37.136Z,32.44
2023-06-13T05:26:03.685Z,32.65
2023-06-13T05:28:30.320Z,32.44
2023-06-13T05:30:57.850Z,32.29
2023-06-13T05:33:24.462Z,32.64
2023-06-13T05:35:57.745Z,32.69
2023-06-13T05:38:25.140Z,32.58
2023-06-13T05:40:51.788Z,32.78
2023-06-13T05:43:20.926Z,32.22
2023-06-13T05:45:49.101Z,32.41
2023-06-13T05:48:15.876Z,32.48
2023-06-13T05:50:42.437Z,31.89
2023-06-13T05:53:09.123Z,31.84
2023-06-13T05:55:35.666Z,32.09
2023-06-13T05:58:02.289Z,31.46
2023-06-13T06:00:28.824Z,31.80
2023-06-13T06:03:05.925Z,31.48
2023-06-13T06:05:32.988Z,31.36
2023-06-13T06:08:01.964Z,30.66
2023-06-13T06:10:28.673Z,30.91
2023-06-13T06:12:55.472Z,30.88
2023-06-13T06:15:22.147Z,30.82
2023-06-13T06:17:48.797Z,30.65
2023-06-13T06:20:15.892Z,30.44
2023-06-13T06:22:44.014Z,30.66
2023-06-13T06:25:19.083Z,30.28
2023-06-13T06:27:47.421Z,30.48
2023-06-13T06:30:19.392Z,30.00
2023-06-13T06:32:46.166Z,30.18
2023-06-13T06:35:12.845Z,29.88
2023-06-13T06:37:39.452Z,29.78
2023-06-13T06:40:09.456Z,29.71
2023-06-13T06:42:36.469Z,29.75
2023-06-13T06:45:13.325Z,29.45
2023-06-13T06:47:40.249Z,30.13
2023-06-13T06:50:07.100Z,29.73
2023-06-13T06:52:33.646Z,29.33
2023-06-13T06:55:00.361Z,29.24
2023-06-13T06:57:27.724Z,29.07
2023-06-13T06:59:55.950Z,29.13
2023-06-13T07:02:22.599Z,29.00
2023-06-13T07:04:49.261Z,29.33
2023-06-13T07:07:16.024Z,29.04
2023-06-13T07:09:42.941Z,29.07
2023-06-13T07:12:09.727Z,28.95
2023-06-13T07:14:39.067Z,29.13
2023-06-13T07:17:06.812Z,28.76
2023-06-13T07:19:36.096Z,28.50
2023-06-13T07:22:05.977Z,28.56
2023-06-13T07:24:36.105Z,28.42
2023-06-13T07:27:12.277Z,28.20
2023-06-13T07:29:39.170Z,27.90
2023-06-13T07:32:06.408Z,26.67
2023-06-13T07:37:05.103Z,25.59
2023-06-13T07:39:31.750Z,24.67
2023-06-13T07:41:58.474Z,24.49
2023-06-13T07:44:25.278Z,25.15
2023-06-13T07:46:51.986Z,25.07
2023-06-13T07:49:18.637Z,25.77
2023-06-13T07:51:45.284Z,25.83
2023-06-13T07:54:11.902Z,25.69
2023-06-13T07:56:39.748Z,25.67
2023-06-13T07:59:08.000Z,25.37
2023-06-13T08:01:37.014Z,25.48
2023-06-13T08:04:04.257Z,25.89
2023-06-13T08:06:31.616Z,25.98
2023-06-13T08:08:58.542Z,25.60
2023-06-13T08:11:25.345Z,25.81
2023-06-13T08:13:52.116Z,25.95
2023-06-13T08:16:18.781Z,25.75
2023-06-13T08:18:45.524Z,26.08
2023-06-13T08:21:12.171Z,25.71
2023-06-13T08:23:38.915Z,24.77
2023-06-13T08:26:05.762Z,23.00
2023-06-13T08:28:32.387Z,18.61
2023-06-13T08:31:10.362Z,15.70
2023-06-13T08:34:26.446Z,12.51
2023-06-13T08:37:11.732Z,11.36
2023-06-13T08:39:48.117Z,10.45
2023-06-13T08:42:24.422Z,10.43
2023-06-13T08:44:59.182Z,8.88
2023-06-13T08:47:42.477Z,8.93
2023-06-13T08:50:21.337Z,8.34
2023-06-13T08:56:06.353Z,7.99
2023-06-13T08:58:47.843Z,6.42
2023-06-13T09:01:19.529Z,6.31
2023-06-13T09:03:54.696Z,6.14
2023-06-13T09:06:38.271Z,5.34
2023-06-13T09:09:14.004Z,5.68
2023-06-13T09:11:50.791Z,5.54
2023-06-13T09:14:32.524Z,4.73
2023-06-13T09:17:28.830Z,4.75
2023-06-13T09:20:35.940Z,4.39
2023-06-13T09:26:04.084Z,4.13
2023-06-13T09:28:50.999Z,4.09
2023-06-13T09:31:36.154Z,3.91
2023-06-13T09:34:21.623Z,3.93
2023-06-13T09:37:33.968Z,3.86
2023-06-13T09:40:15.130Z,3.58
2023-06-13T09:43:03.994Z,3.63
2023-06-13T09:45:40.461Z,3.38
2023-06-13T09:48:26.490Z,3.42
2023-06-13T09:51:32.676Z,3.06
2023-06-13T09:54:11.104Z,2.59
2023-06-13T09:57:02.056Z,2.34
2023-06-13T09:59:42.473Z,2.51
2023-06-13T10:02:24.209Z,2.64
2023-06-13T10:05:34.067Z,2.49
2023-06-13T10:08:20.834Z,2.78
2023-06-13T10:14:11.254Z,2.28
2023-06-13T10:17:09.288Z,1.99
2023-06-13T10:19:59.671Z,1.97
2023-06-13T10:23:15.530Z,1.85
2023-06-13T10:29:42.227Z,1.65
2023-06-13T10:32:49.180Z,1.54
2023-06-13T10:35:46.418Z,1.47
2023-06-13T10:38:44.881Z,1.13
2023-06-13T10:41:29.450Z,1.39
2023-06-13T10:47:49.338Z,1.17
2023-06-13T10:53:46.499Z,1.01
2023-06-13T10:56:44.932Z,0.97
2023-06-13T11:05:37.370Z,0.91
2023-06-13T11:08:42.882Z,1.07
2023-06-13T11:11:49.031Z,0.81
2023-06-13T11:14:29.244Z,0.43
2023-06-13T11:17:08.674Z,0.49
2023-06-13T11:19:45.862Z,0.79
2023-06-13T11:22:19.165Z,1.02
2023-06-13T11:25:08.561Z,1.27
2023-06-13T11:27:53.764Z,1.02
2023-06-13T11:30:31.272Z,1.35
2023-06-13T11:33:04.968Z,1.65
2023-06-13T11:36:04.939Z,1.65
2023-06-13T11:38:48.753Z,1.77
2023-06-13T11:41:23.026Z,1.36
2023-06-13T11:44:05.277Z,1.65
2023-06-13T11:46:44.709Z,1.97
2023-06-13T11:49:19.501Z,1.69
2023-06-13T11:52:09.925Z,1.81
2023-06-13T11:54:54.250Z,2.30
2023-06-13T12:01:12.331Z,2.49
2023-06-13T12:10:00.802Z,6.13
2023-06-13T12:12:45.618Z,6.83
2023-06-13T12:15:25.802Z,8.04
2023-06-13T12:18:37.592Z,8.95
2023-06-13T12:24:13.770Z,9.66
2023-06-13T12:26:47.251Z,10.03
2023-06-13T12:29:33.690Z,10.23
2023-06-13T12:32:18.810Z,10.76
2023-06-13T12:34:48.740Z,11.20
2023-06-13T12:37:59.378Z,10.88
2023-06-13T12:40:41.131Z,11.55
2023-06-13T12:43:12.305Z,11.27
2023-06-13T12:46:01.781Z,11.45
2023-06-13T12:48:40.902Z,11.98
2023-06-13T12:51:30.226Z,12.03
2023-06-13T12:54:22.872Z,12.26
2023-06-13T12:57:16.320Z,12.20
2023-06-13T12:59:52.880Z,12.64
2023-06-13T13:02:31.161Z,12.75
2023-06-13T13:05:21.627Z,12.22
2023-06-13T13:08:32.192Z,12.06
2023-06-13T13:11:12.658Z,13.18
2023-06-13T13:14:12.129Z,12.93
2023-06-13T13:17:29.636Z,12.78
2023-06-13T13:20:30.813Z,13.27
2023-06-13T13:23:31.247Z,12.91
2023-06-13T13:29:25.426Z,13.17
2023-06-13T13:32:36.930Z,13.16
2023-06-13T13:38:43.176Z,12.23
2023-06-13T13:41:19.777Z,12.96
2023-06-13T13:44:00.216Z,13.04
2023-06-13T13:50:21.727Z,12.32
2023-06-13T13:53:22.594Z,13.28
2023-06-13T13:55:54.949Z,12.57
2023-06-13T13:58:32.150Z,13.27
2023-06-13T14:01:13.367Z,12.83
2023-06-13T14:03:59.308Z,13.13
2023-06-13T14:07:04.804Z,13.82
2023-06-13T14:10:01.070Z,13.62
2023-06-13T14:12:48.621Z,13.85
2023-06-13T14:15:40.634Z,13.14
2023-06-13T14:18:19.960Z,13.61
2023-06-13T14:21:18.096Z,13.88
2023-06-13T14:24:03.502Z,13.85
2023-06-13T14:26:44.528Z,13.76
2023-06-13T14:29:18.165Z,13.52
2023-06-13T14:34:52.884Z,13.78
2023-06-13T14:37:31.775Z,12.98
2023-06-13T14:40:12.248Z,13.77
2023-06-13T14:42:46.407Z,13.86
2023-06-13T14:45:29.711Z,13.66
2023-06-13T14:48:17.534Z,13.10
2023-06-13T14:50:45.216Z,12.98
2023-06-13T14:56:12.853Z,13.41
2023-06-13T14:59:05.902Z,13.54
2023-06-13T15:01:38.586Z,13.35
2023-06-13T15:04:35.873Z,14.13
2023-06-13T15:10:49.531Z,13.71
2023-06-13T15:13:25.470Z,13.80
2023-06-13T15:15:57.010Z,14.04
2023-06-13T15:18:39.465Z,13.91
2023-06-13T15:21:21.923Z,13.30
2023-06-13T15:23:57.389Z,14.50
2023-06-13T15:26:35.060Z,13.85
2023-06-13T15:29:18.140Z,13.82
2023-06-13T15:31:50.663Z,13.63
2023-06-13T15:34:22.009Z,13.94
2023-06-13T15:37:16.315Z,13.56
2023-06-13T15:40:10.413Z,13.72
2023-06-13T15:42:47.025Z,14.26
2023-06-13T15:45:44.980Z,13.40
2023-06-13T15:51:20.904Z,13.91
2023-06-13T15:54:09.087Z,13.39
2023-06-13T16:00:02.184Z,14.32
2023-06-13T16:02:52.639Z,13.56
2023-06-13T16:05:54.428Z,13.50
2023-06-13T16:08:50.384Z,14.31
2023-06-13T16:12:04.558Z,14.06
2023-06-13T16:14:43.583Z,14.17
2023-06-13T16:17:28.557Z,15.14
2023-06-13T16:20:11.886Z,14.65
2023-06-13T16:22:50.800Z,14.51
2023-06-13T16:28:20.421Z,15.14
2023-06-13T16:30:48.972Z,15.46
2023-06-13T16:33:43.101Z,15.18
2023-06-13T16:36:18.749Z,15.20
2023-06-13T16:38:53.919Z,15.69
2023-06-13T16:41:30.397Z,15.26
2023-06-13T16:44:36.466Z,15.51
2023-06-13T16:50:35.583Z,15.15
2023-06-13T16:55:56.329Z,15.67
2023-06-13T17:01:45.745Z,15.91
2023-06-13T17:04:27.421Z,15.04
2023-06-13T17:07:19.972Z,15.16
2023-06-13T17:10:10.024Z,15.58
2023-06-13T17:12:55.449Z,15.91
2023-06-13T17:15:30.076Z,16.27
2023-06-13T17:18:30.598Z,16.18
2023-06-13T17:21:26.937Z,16.42
2023-06-13T17:24:04.105Z,15.96
2023-06-13T17:26:38.004Z,16.83
2023-06-13T17:29:21.290Z,16.80
2023-06-13T17:31:52.499Z,16.58
2023-06-13T17:34:30.026Z,17.41
2023-06-13T17:37:15.872Z,17.40
2023-06-13T17:39:58.685Z,16.92
2023-06-13T17:42:52.666Z,17.22
2023-06-13T17:45:24.286Z,17.07
2023-06-13T17:47:52.612Z,17.30
2023-06-13T17:50:22.696Z,17.27
2023-06-13T17:52:57.016Z,16.59
2023-06-13T17:55:26.087Z,17.24
2023-06-13T17:57:58.427Z,17.46
2023-06-13T18:00:29.213Z,17.43
2023-06-13T18:02:57.905Z,17.58
2023-06-13T18:05:27.434Z,16.96
2023-06-13T18:08:02.878Z,16.86
2023-06-13T18:10:40.054Z,16.79
2023-06-13T18:13:16.319Z,16.98
2023-06-13T18:16:11.325Z,17.24
2023-06-13T18:18:53.740Z,17.18
2023-06-13T18:21:29.080Z,17.74
2023-06-13T18:24:14.170Z,18.13
2023-06-13T18:30:01.285Z,18.06
2023-06-13T18:32:44.523Z,18.18
2023-06-13T18:35:13.591Z,18.23
2023-06-13T18:37:46.973Z,18.49
2023-06-13T18:40:18.454Z,18.35
2023-06-13T18:43:07.409Z,18.78
2023-06-13T18:45:44.275Z,18.80
2023-06-13T18:48:19.490Z,18.88
2023-06-13T18:51:13.990Z,19.14
2023-06-13T18:53:42.325Z,18.98
2023-06-13T18:56:16.744Z,18.92
2023-06-13T18:58:53.928Z,19.02
2023-06-13T19:01:31.143Z,19.16
2023-06-13T19:09:54.963Z,18.99
2023-06-13T19:12:50.572Z,18.78
2023-06-13T19:15:39.675Z,19.54
2023-06-13T19:18:27.185Z,19.39
2023-06-13T19:21:05.891Z,19.19
2023-06-13T19:24:14.119Z,19.86
2023-06-13T19:26:53.721Z,19.32
2023-06-13T19:29:31.479Z,19.24
2023-06-13T19:32:15.734Z,19.41
2023-06-13T19:35:14.033Z,19.28
2023-06-13T19:38:23.110Z,19.02
2023-06-13T19:40:56.271Z,19.25
2023-06-13T19:46:28.305Z,19.86
2023-06-13T19:49:09.971Z,19.82
2023-06-13T19:52:12.353Z,19.62
2023-06-13T19:55:05.250Z,19.66
2023-06-13T19:57:51.125Z,20.15
2023-06-13T20:00:37.454Z,20.24
2023-06-13T20:03:21.753Z,20.10
2023-06-13T20:05:53.741Z,20.31
2023-06-13T20:08:29.180Z,20.27
2023-06-13T20:11:05.980Z,20.27
2023-06-13T20:13:49.446Z,20.38
2023-06-13T20:17:21.429Z,20.43
2023-06-13T20:20:40.319Z,20.69
2023-06-13T20:23:30.092Z,20.69
2023-06-13T20:29:35.884Z,21.03
2023-06-13T20:35:14.596Z,21.24
2023-06-13T20:48:23.933Z,21.73
2023-06-13T20:51:24.417Z,21.86
2023-06-13T20:54:15.461Z,21.86
2023-06-13T20:57:02.540Z,21.67
2023-06-13T21:00:03.383Z,21.95
2023-06-13T21:02:44.567Z,22.19
2023-06-13T21:05:48.334Z,21.97
2023-06-13T21:08:43.308Z,22.02
2023-06-13T21:11:16.986Z,22.22
2023-06-13T21:14:16.480Z,22.58
2023-06-13T21:17:17.530Z,22.62
2023-06-13T21:20:27.517Z,22.76
2023-06-13T21:23:31.348Z,23.16
2023-06-13T21:26:12.014Z,23.16
2023-06-13T21:28:52.772Z,23.39
2023-06-13T21:31:21.532Z,23.59
2023-06-13T21:34:24.526Z,23.81
2023-06-13T21:37:02.983Z,24.12
2023-06-13T21:39:38.069Z,24.35
2023-06-13T21:42:14.483Z,24.00
2023-06-13T21:44:53.535Z,24.55
2023-06-13T21:48:07.554Z,24.67
2023-06-13T21:51:26.317Z,24.72
2023-06-13T21:57:22.777Z,25.04
2023-06-13T22:00:00.705Z,25.34
2023-06-13T22:02:38.074Z,25.29
2023-06-13T22:05:16.470Z,25.44
2023-06-13T22:11:24.605Z,26.18
2023-06-13T22:13:56.762Z,25.88
2023-06-13T22:16:39.228Z,25.96
2023-06-13T22:19:19.865Z,26.13
2023-06-13T22:22:11.060Z,26.63
2023-06-13T22:25:01.600Z,26.86
2023-06-13T22:28:35.932Z,27.06
2023-06-13T22:31:32.913Z,26.38
2023-06-13T22:34:15.111Z,26.84
2023-06-13T22:40:28.486Z,27.22
2023-06-13T22:47:34.302Z,27.22
2023-06-13T22:50:17.435Z,27.42
2023-06-13T22:56:19.893Z,27.45
2023-06-13T22:59:23.605Z,27.71
2023-06-13T23:08:16.233Z,28.07
2023-06-13T23:10:54.999Z,27.68
2023-06-13T23:13:50.669Z,28.04
2023-06-13T23:16:28.148Z,27.67
2023-06-13T23:19:03.330Z,28.09
2023-06-13T23:21:48.966Z,28.06
2023-06-13T23:24:48.734Z,27.85
2023-06-13T23:27:46.246Z,28.00
2023-06-13T23:30:35.674Z,27.89
2023-06-13T23:36:46.765Z,27.57
2023-06-13T23:39:38.058Z,27.82
2023-06-13T23:42:16.397Z,27.57
2023-06-13T23:48:08.868Z,27.82
2023-06-13T23:51:07.903Z,27.41
2023-06-13T23:53:47.729Z,27.67
2023-06-13T23:56:39.235Z,27.31
2023-06-13T23:59:20.593Z,27.57
